Airfield :
LOGIN :

Register | Disclaimer

   EN    FR    IT 

 










Legend :    VFR   Marginal VFR   IFR   Intensive IFR   Very Intensive IFR
Visi :
Ceiling :
>= 8 km
>= 3000ft
5 to 8 km
1000 to 3000 ft
1500m to 5 km
500 to 1000 ft
800 to 1500m
200 to 500 ft
< 800m
< 200 ft
Symbols :   Thunderstorms  Fog  Heavy snow  Heavy precipitations  Wind > 20 kt
SIGMETs :     Misc.  Thunderstorms  Icing  Turbulence  Mountain Waves  Volcanic Ashes






- Airport Elevation : 195 ft


LFMY - Salon de Provence

CURRENT METAR :
  • 221030Z AUTO 05007KT 020V100 CAVOK 20/16 Q1017 BECMG 10015G25KT

EXPIRED METARs :
  • 221000Z AUTO 05011KT CAVOK 19/16 Q1017 BECMG 10015G25KT
  • 220930Z AUTO 06010KT CAVOK 19/17 Q1017 BECMG 10015G25KT
  • 220900Z AUTO 06008KT 9999 BKN033 OVC066 18/16 Q1017 BECMG 10015G25KT
  • 220830Z AUTO 08006KT 9999 SCT036 BKN044 OVC140 17/16 Q1018 BECMG 10015G25KT
  • 220800Z AUTO 05006KT CAVOK 16/15 Q1018 NOSIG

TAF AMD TAF LFMY
Valid from the 22 at 10:00 until the 23 at 09:00 UTC


221045Z 2210/2309 07010KT CAVOK
BECMG 2210/2212 12015G25KT CAVOK
BECMG 2222/2224 10030G40KT
PROB30
TEMPO 2306/2309 4000 SHRA BKN050TCU



MET'MAP, your aeronautical weather chart ! - Copyright ORBIFLY December 2007 - Disclaimer

ORBIFLY MET'MAP TEAM :

Programming & Development : Alexandra Zaïnal
Concept & Development : Baudouin d'Aumeries
Co-Development & Prog : Marc-Olivier Méhu
Technical & hardware support : Manuel Goepfert

Contact : metmap@orbifly.com




SOURCES & CREDITS :

   NOAA